sensor_id;sensor_type;location;lat;lon;timestamp;temperature;humidity
35495;DHT22;21608;49.300;6.846;2022-11-20T00:01:23;22.10;51.70
35495;DHT22;21608;49.300;6.846;2022-11-20T00:04:26;22.10;51.80
35495;DHT22;21608;49.300;6.846;2022-11-20T00:07:27;22.00;51.90
35495;DHT22;21608;49.300;6.846;2022-11-20T00:10:29;22.00;51.80
35495;DHT22;21608;49.300;6.846;2022-11-20T00:13:32;22.00;51.90
35495;DHT22;21608;49.300;6.846;2022-11-20T00:16:33;22.00;51.70
35495;DHT22;21608;49.300;6.846;2022-11-20T00:19:35;22.00;51.60
35495;DHT22;21608;49.300;6.846;2022-11-20T00:22:37;22.00;51.70
35495;DHT22;21608;49.300;6.846;2022-11-20T00:25:39;22.00;51.80
35495;DHT22;21608;49.300;6.846;2022-11-20T00:28:42;22.00;51.70
35495;DHT22;21608;49.300;6.846;2022-11-20T00:31:44;21.90;51.70
35495;DHT22;21608;49.300;6.846;2022-11-20T00:34:45;21.90;51.70
35495;DHT22;21608;49.300;6.846;2022-11-20T00:37:47;21.90;51.70
35495;DHT22;21608;49.300;6.846;2022-11-20T00:40:55;21.90;51.80
35495;DHT22;21608;49.300;6.846;2022-11-20T00:43:57;21.90;51.70
35495;DHT22;21608;49.300;6.846;2022-11-20T00:46:59;21.90;51.70
35495;DHT22;21608;49.300;6.846;2022-11-20T00:50:01;21.90;52.30
35495;DHT22;21608;49.300;6.846;2022-11-20T00:53:02;21.90;51.80
35495;DHT22;21608;49.300;6.846;2022-11-20T00:56:07;21.90;51.80
35495;DHT22;21608;49.300;6.846;2022-11-20T00:59:09;21.90;51.80
35495;DHT22;21608;49.300;6.846;2022-11-20T01:02:12;21.90;51.80
35495;DHT22;21608;49.300;6.846;2022-11-20T01:05:14;21.90;51.80
35495;DHT22;21608;49.300;6.846;2022-11-20T01:08:15;21.90;51.80
35495;DHT22;21608;49.300;6.846;2022-11-20T01:11:21;21.80;51.90
35495;DHT22;21608;49.300;6.846;2022-11-20T01:14:23;21.80;51.90
35495;DHT22;21608;49.300;6.846;2022-11-20T01:17:25;21.80;51.90
35495;DHT22;21608;49.300;6.846;2022-11-20T01:20:26;21.80;51.90
35495;DHT22;21608;49.300;6.846;2022-11-20T01:23:36;21.80;51.90
35495;DHT22;21608;49.300;6.846;2022-11-20T01:26:41;21.80;51.90
35495;DHT22;21608;49.300;6.846;2022-11-20T01:29:43;21.80;51.90
35495;DHT22;21608;49.300;6.846;2022-11-20T01:32:44;21.80;51.90
35495;DHT22;21608;49.300;6.846;2022-11-20T01:35:46;21.80;51.90
35495;DHT22;21608;49.300;6.846;2022-11-20T01:38:54;21.80;51.90
35495;DHT22;21608;49.300;6.846;2022-11-20T01:41:56;21.80;52.00
35495;DHT22;21608;49.300;6.846;2022-11-20T01:45:48;21.80;52.00
35495;DHT22;21608;49.300;6.846;2022-11-20T01:49:04;21.80;52.00
35495;DHT22;21608;49.300;6.846;2022-11-20T01:52:21;21.80;52.00
35495;DHT22;21608;49.300;6.846;2022-11-20T01:55:33;21.70;51.90
35495;DHT22;21608;49.300;6.846;2022-11-20T01:58:40;21.80;52.00
35495;DHT22;21608;49.300;6.846;2022-11-20T02:01:43;21.70;52.00
35495;DHT22;21608;49.300;6.846;2022-11-20T02:04:45;21.70;52.00
35495;DHT22;21608;49.300;6.846;2022-11-20T02:07:48;21.70;52.00
35495;DHT22;21608;49.300;6.846;2022-11-20T02:10:50;21.70;52.70
35495;DHT22;21608;49.300;6.846;2022-11-20T02:13:51;21.70;52.60
35495;DHT22;21608;49.300;6.846;2022-11-20T02:16:55;21.70;52.00
35495;DHT22;21608;49.300;6.846;2022-11-20T02:19:57;21.70;52.00
35495;DHT22;21608;49.300;6.846;2022-11-20T02:23:05;21.70;52.00
35495;DHT22;21608;49.300;6.846;2022-11-20T02:26:12;21.70;52.00
35495;DHT22;21608;49.300;6.846;2022-11-20T02:29:16;21.70;52.00
35495;DHT22;21608;49.300;6.846;2022-11-20T02:32:23;21.70;52.00
35495;DHT22;21608;49.300;6.846;2022-11-20T02:38:27;21.60;52.00
35495;DHT22;21608;49.300;6.846;2022-11-20T02:41:36;21.60;52.00
35495;DHT22;21608;49.300;6.846;2022-11-20T02:44:39;21.60;52.10
35495;DHT22;21608;49.300;6.846;2022-11-20T02:47:40;21.60;52.10
35495;DHT22;21608;49.300;6.846;2022-11-20T02:50:42;21.60;52.10
35495;DHT22;21608;49.300;6.846;2022-11-20T02:53:44;21.60;52.10
35495;DHT22;21608;49.300;6.846;2022-11-20T02:56:46;21.60;52.10
35495;DHT22;21608;49.300;6.846;2022-11-20T02:59:47;21.60;52.10
35495;DHT22;21608;49.300;6.846;2022-11-20T03:02:49;21.60;52.10
35495;DHT22;21608;49.300;6.846;2022-11-20T03:05:51;21.60;52.10
35495;DHT22;21608;49.300;6.846;2022-11-20T03:08:53;21.60;52.10
35495;DHT22;21608;49.300;6.846;2022-11-20T03:11:54;21.60;52.10
35495;DHT22;21608;49.300;6.846;2022-11-20T03:14:56;21.60;52.10
35495;DHT22;21608;49.300;6.846;2022-11-20T03:17:58;21.60;52.20
35495;DHT22;21608;49.300;6.846;2022-11-20T03:21:00;21.60;52.20
35495;DHT22;21608;49.300;6.846;2022-11-20T03:24:02;21.60;52.20
35495;DHT22;21608;49.300;6.846;2022-11-20T03:27:04;21.60;52.20
35495;DHT22;21608;49.300;6.846;2022-11-20T03:30:06;21.60;52.20
35495;DHT22;21608;49.300;6.846;2022-11-20T03:33:08;21.60;52.20
35495;DHT22;21608;49.300;6.846;2022-11-20T03:36:12;21.60;52.20
35495;DHT22;21608;49.300;6.846;2022-11-20T03:39:14;21.50;52.20
35495;DHT22;21608;49.300;6.846;2022-11-20T03:42:16;21.50;52.20
35495;DHT22;21608;49.300;6.846;2022-11-20T03:45:36;21.50;52.20
35495;DHT22;21608;49.300;6.846;2022-11-20T03:48:38;21.60;52.20
35495;DHT22;21608;49.300;6.846;2022-11-20T03:51:39;21.50;52.20
35495;DHT22;21608;49.300;6.846;2022-11-20T03:54:41;21.50;52.10
35495;DHT22;21608;49.300;6.846;2022-11-20T03:57:43;21.50;52.20
35495;DHT22;21608;49.300;6.846;2022-11-20T04:00:45;21.50;52.20
35495;DHT22;21608;49.300;6.846;2022-11-20T04:03:47;21.50;52.20
35495;DHT22;21608;49.300;6.846;2022-11-20T04:06:49;21.40;52.10
35495;DHT22;21608;49.300;6.846;2022-11-20T04:09:51;21.50;52.20
35495;DHT22;21608;49.300;6.846;2022-11-20T04:12:52;21.50;52.20
35495;DHT22;21608;49.300;6.846;2022-11-20T04:15:57;21.50;52.30
35495;DHT22;21608;49.300;6.846;2022-11-20T04:19:01;21.50;52.90
35495;DHT22;21608;49.300;6.846;2022-11-20T04:22:03;21.50;52.20
35495;DHT22;21608;49.300;6.846;2022-11-20T04:25:05;21.50;52.20
35495;DHT22;21608;49.300;6.846;2022-11-20T04:28:07;21.50;52.20
35495;DHT22;21608;49.300;6.846;2022-11-20T04:31:11;21.50;52.30
35495;DHT22;21608;49.300;6.846;2022-11-20T04:34:13;21.40;52.20
35495;DHT22;21608;49.300;6.846;2022-11-20T04:37:15;21.40;52.20
35495;DHT22;21608;49.300;6.846;2022-11-20T04:40:17;21.40;52.30
35495;DHT22;21608;49.300;6.846;2022-11-20T04:43:19;21.40;52.30
35495;DHT22;21608;49.300;6.846;2022-11-20T04:46:21;21.40;52.20
35495;DHT22;21608;49.300;6.846;2022-11-20T04:49:23;21.40;52.20
35495;DHT22;21608;49.300;6.846;2022-11-20T04:52:26;21.40;52.20
35495;DHT22;21608;49.300;6.846;2022-11-20T04:55:27;21.40;52.30
35495;DHT22;21608;49.300;6.846;2022-11-20T04:58:29;21.40;52.30
35495;DHT22;21608;49.300;6.846;2022-11-20T05:01:31;21.40;52.30
35495;DHT22;21608;49.300;6.846;2022-11-20T05:04:34;21.40;52.30
35495;DHT22;21608;49.300;6.846;2022-11-20T05:07:35;21.40;52.30
35495;DHT22;21608;49.300;6.846;2022-11-20T05:10:37;21.40;52.30
35495;DHT22;21608;49.300;6.846;2022-11-20T05:13:39;21.40;52.40
35495;DHT22;21608;49.300;6.846;2022-11-20T05:16:41;21.40;52.30
35495;DHT22;21608;49.300;6.846;2022-11-20T05:19:43;21.40;52.30
35495;DHT22;21608;49.300;6.846;2022-11-20T05:22:45;21.40;52.40
35495;DHT22;21608;49.300;6.846;2022-11-20T05:25:47;21.30;52.30
35495;DHT22;21608;49.300;6.846;2022-11-20T05:28:50;21.30;52.30
35495;DHT22;21608;49.300;6.846;2022-11-20T05:31:52;21.30;52.30
35495;DHT22;21608;49.300;6.846;2022-11-20T05:34:53;21.30;52.30
35495;DHT22;21608;49.300;6.846;2022-11-20T05:37:55;21.30;52.30
35495;DHT22;21608;49.300;6.846;2022-11-20T05:44:06;21.30;52.30
35495;DHT22;21608;49.300;6.846;2022-11-20T05:47:08;21.30;52.30
35495;DHT22;21608;49.300;6.846;2022-11-20T05:50:09;21.30;52.30
35495;DHT22;21608;49.300;6.846;2022-11-20T05:53:11;21.30;52.30
35495;DHT22;21608;49.300;6.846;2022-11-20T05:56:15;21.30;52.30
35495;DHT22;21608;49.300;6.846;2022-11-20T05:59:18;21.30;52.30
35495;DHT22;21608;49.300;6.846;2022-11-20T06:02:20;21.30;52.40
35495;DHT22;21608;49.300;6.846;2022-11-20T06:05:22;21.30;52.40
35495;DHT22;21608;49.300;6.846;2022-11-20T06:08:23;21.30;52.40
35495;DHT22;21608;49.300;6.846;2022-11-20T06:11:25;21.30;52.40
35495;DHT22;21608;49.300;6.846;2022-11-20T06:14:27;21.30;52.40
35495;DHT22;21608;49.300;6.846;2022-11-20T06:17:28;21.30;52.40
35495;DHT22;21608;49.300;6.846;2022-11-20T06:20:30;21.30;52.50
35495;DHT22;21608;49.300;6.846;2022-11-20T06:23:33;21.30;52.50
35495;DHT22;21608;49.300;6.846;2022-11-20T06:26:36;21.30;52.50
35495;DHT22;21608;49.300;6.846;2022-11-20T06:29:38;21.30;52.50
35495;DHT22;21608;49.300;6.846;2022-11-20T06:32:39;21.30;52.50
35495;DHT22;21608;49.300;6.846;2022-11-20T06:35:41;21.30;52.60
35495;DHT22;21608;49.300;6.846;2022-11-20T06:38:43;21.30;52.60
35495;DHT22;21608;49.300;6.846;2022-11-20T06:41:45;21.20;52.60
35495;DHT22;21608;49.300;6.846;2022-11-20T06:44:47;21.20;52.60
35495;DHT22;21608;49.300;6.846;2022-11-20T06:47:48;21.20;52.60
35495;DHT22;21608;49.300;6.846;2022-11-20T06:50:50;21.20;52.60
35495;DHT22;21608;49.300;6.846;2022-11-20T06:53:53;21.20;52.70
35495;DHT22;21608;49.300;6.846;2022-11-20T06:56:54;21.20;52.60
35495;DHT22;21608;49.300;6.846;2022-11-20T06:59:56;21.30;52.70
35495;DHT22;21608;49.300;6.846;2022-11-20T07:02:58;21.20;52.60
35495;DHT22;21608;49.300;6.846;2022-11-20T07:06:00;21.30;52.70
35495;DHT22;21608;49.300;6.846;2022-11-20T07:09:02;21.20;52.70
35495;DHT22;21608;49.300;6.846;2022-11-20T07:12:08;21.20;52.70
35495;DHT22;21608;49.300;6.846;2022-11-20T07:15:09;21.20;52.70
35495;DHT22;21608;49.300;6.846;2022-11-20T07:18:11;21.20;52.80
35495;DHT22;21608;49.300;6.846;2022-11-20T07:21:13;21.20;52.80
35495;DHT22;21608;49.300;6.846;2022-11-20T07:24:15;21.20;52.80
35495;DHT22;21608;49.300;6.846;2022-11-20T07:27:18;21.20;52.80
35495;DHT22;21608;49.300;6.846;2022-11-20T07:30:19;21.20;52.80
35495;DHT22;21608;49.300;6.846;2022-11-20T07:33:21;21.20;52.90
35495;DHT22;21608;49.300;6.846;2022-11-20T07:36:23;21.20;52.90
35495;DHT22;21608;49.300;6.846;2022-11-20T07:39:24;21.20;52.90
35495;DHT22;21608;49.300;6.846;2022-11-20T07:42:26;21.20;52.80
35495;DHT22;21608;49.300;6.846;2022-11-20T07:45:30;21.20;52.80
35495;DHT22;21608;49.300;6.846;2022-11-20T07:48:32;21.20;52.80
35495;DHT22;21608;49.300;6.846;2022-11-20T07:51:33;21.20;52.80
35495;DHT22;21608;49.300;6.846;2022-11-20T07:54:35;21.20;52.80
35495;DHT22;21608;49.300;6.846;2022-11-20T07:57:37;21.20;52.80
35495;DHT22;21608;49.300;6.846;2022-11-20T08:00:40;21.20;52.80
35495;DHT22;21608;49.300;6.846;2022-11-20T08:03:42;21.20;52.80
35495;DHT22;21608;49.300;6.846;2022-11-20T08:06:43;21.20;52.80
35495;DHT22;21608;49.300;6.846;2022-11-20T08:09:45;21.10;52.80
35495;DHT22;21608;49.300;6.846;2022-11-20T08:12:51;21.10;52.70
35495;DHT22;21608;49.300;6.846;2022-11-20T08:16:12;21.20;52.70
35495;DHT22;21608;49.300;6.846;2022-11-20T08:19:15;21.10;51.90
35495;DHT22;21608;49.300;6.846;2022-11-20T08:22:17;21.10;52.20
35495;DHT22;21608;49.300;6.846;2022-11-20T08:25:19;21.10;52.40
35495;DHT22;21608;49.300;6.846;2022-11-20T08:28:21;21.10;52.40
35495;DHT22;21608;49.300;6.846;2022-11-20T08:31:24;21.10;52.50
35495;DHT22;21608;49.300;6.846;2022-11-20T08:34:26;21.20;52.60
35495;DHT22;21608;49.300;6.846;2022-11-20T08:37:28;21.20;52.60
35495;DHT22;21608;49.300;6.846;2022-11-20T08:40:30;21.20;52.60
35495;DHT22;21608;49.300;6.846;2022-11-20T08:43:32;21.20;53.20
35495;DHT22;21608;49.300;6.846;2022-11-20T08:46:36;21.20;52.60
35495;DHT22;21608;49.300;6.846;2022-11-20T08:49:38;21.20;52.60
35495;DHT22;21608;49.300;6.846;2022-11-20T08:52:40;21.20;52.60
35495;DHT22;21608;49.300;6.846;2022-11-20T08:55:42;21.30;52.70
35495;DHT22;21608;49.300;6.846;2022-11-20T08:58:44;21.30;52.60
35495;DHT22;21608;49.300;6.846;2022-11-20T09:02:07;21.30;52.60
35495;DHT22;21608;49.300;6.846;2022-11-20T09:05:09;21.40;52.60
35495;DHT22;21608;49.300;6.846;2022-11-20T09:08:10;21.40;52.60
35495;DHT22;21608;49.300;6.846;2022-11-20T09:11:12;21.40;52.60
35495;DHT22;21608;49.300;6.846;2022-11-20T09:14:14;21.40;52.60
35495;DHT22;21608;49.300;6.846;2022-11-20T09:17:16;21.40;52.60
35495;DHT22;21608;49.300;6.846;2022-11-20T09:20:18;21.50;52.40
35495;DHT22;21608;49.300;6.846;2022-11-20T09:23:20;21.50;52.30
35495;DHT22;21608;49.300;6.846;2022-11-20T09:26:22;21.50;52.30
35495;DHT22;21608;49.300;6.846;2022-11-20T09:29:24;21.50;52.30
35495;DHT22;21608;49.300;6.846;2022-11-20T09:32:26;21.60;52.30
35495;DHT22;21608;49.300;6.846;2022-11-20T09:35:27;21.60;52.30
35495;DHT22;21608;49.300;6.846;2022-11-20T09:38:29;21.60;52.10
35495;DHT22;21608;49.300;6.846;2022-11-20T09:44:52;21.60;52.10
35495;DHT22;21608;49.300;6.846;2022-11-20T09:54:22;21.70;52.40
35495;DHT22;21608;49.300;6.846;2022-11-20T09:57:40;21.70;52.40
35495;DHT22;21608;49.300;6.846;2022-11-20T10:00:44;21.70;52.40
35495;DHT22;21608;49.300;6.846;2022-11-20T10:03:57;21.80;52.40
35495;DHT22;21608;49.300;6.846;2022-11-20T10:07:17;21.80;52.40
35495;DHT22;21608;49.300;6.846;2022-11-20T10:10:44;21.80;52.40
35495;DHT22;21608;49.300;6.846;2022-11-20T10:17:19;21.90;52.50
35495;DHT22;21608;49.300;6.846;2022-11-20T10:20:40;21.90;52.40
35495;DHT22;21608;49.300;6.846;2022-11-20T10:30:46;22.00;52.40
35495;DHT22;21608;49.300;6.846;2022-11-20T10:33:49;22.00;52.20
35495;DHT22;21608;49.300;6.846;2022-11-20T10:37:18;22.00;52.80
35495;DHT22;21608;49.300;6.846;2022-11-20T10:43:33;22.00;52.10
35495;DHT22;21608;49.300;6.846;2022-11-20T10:46:44;22.00;52.10
35495;DHT22;21608;49.300;6.846;2022-11-20T10:49:53;22.10;52.00
35495;DHT22;21608;49.300;6.846;2022-11-20T10:57:01;22.10;52.00
35495;DHT22;21608;49.300;6.846;2022-11-20T11:00:10;22.10;51.90
35495;DHT22;21608;49.300;6.846;2022-11-20T11:03:25;22.10;51.90
35495;DHT22;21608;49.300;6.846;2022-11-20T11:06:42;22.10;51.90
35495;DHT22;21608;49.300;6.846;2022-11-20T11:09:51;22.10;51.90
35495;DHT22;21608;49.300;6.846;2022-11-20T11:12:54;22.10;51.90
35495;DHT22;21608;49.300;6.846;2022-11-20T11:15:56;22.20;52.00
35495;DHT22;21608;49.300;6.846;2022-11-20T11:19:14;22.20;52.00
35495;DHT22;21608;49.300;6.846;2022-11-20T11:22:18;22.20;52.00
35495;DHT22;21608;49.300;6.846;2022-11-20T11:25:28;22.20;51.90
35495;DHT22;21608;49.300;6.846;2022-11-20T11:28:31;22.20;51.90
35495;DHT22;21608;49.300;6.846;2022-11-20T11:31:34;22.30;51.90
35495;DHT22;21608;49.300;6.846;2022-11-20T11:34:36;22.20;51.90
35495;DHT22;21608;49.300;6.846;2022-11-20T11:37:39;22.20;52.50
35495;DHT22;21608;49.300;6.846;2022-11-20T11:40:41;22.20;51.90
35495;DHT22;21608;49.300;6.846;2022-11-20T11:43:52;22.20;51.90
35495;DHT22;21608;49.300;6.846;2022-11-20T11:47:25;22.20;51.90
35495;DHT22;21608;49.300;6.846;2022-11-20T11:50:29;22.20;51.90
35495;DHT22;21608;49.300;6.846;2022-11-20T11:53:32;22.30;51.90
35495;DHT22;21608;49.300;6.846;2022-11-20T11:56:35;22.30;51.90
35495;DHT22;21608;49.300;6.846;2022-11-20T12:03:36;22.30;51.70
35495;DHT22;21608;49.300;6.846;2022-11-20T12:06:42;22.30;51.70
35495;DHT22;21608;49.300;6.846;2022-11-20T12:09:49;22.30;51.70
35495;DHT22;21608;49.300;6.846;2022-11-20T12:13:02;22.30;51.60
35495;DHT22;21608;49.300;6.846;2022-11-20T12:16:07;22.30;51.70
35495;DHT22;21608;49.300;6.846;2022-11-20T12:19:13;22.30;51.60
35495;DHT22;21608;49.300;6.846;2022-11-20T12:25:32;22.30;51.70
35495;DHT22;21608;49.300;6.846;2022-11-20T12:42:13;22.30;51.50
35495;DHT22;21608;49.300;6.846;2022-11-20T12:46:09;22.30;51.80
35495;DHT22;21608;49.300;6.846;2022-11-20T12:52:38;22.30;51.80
35495;DHT22;21608;49.300;6.846;2022-11-20T13:09:10;22.30;52.10
35495;DHT22;21608;49.300;6.846;2022-11-20T13:18:38;22.20;52.20
35495;DHT22;21608;49.300;6.846;2022-11-20T13:21:44;22.20;51.70
35495;DHT22;21608;49.300;6.846;2022-11-20T13:24:51;22.20;51.60
35495;DHT22;21608;49.300;6.846;2022-11-20T13:27:55;22.20;51.80
35495;DHT22;21608;49.300;6.846;2022-11-20T13:30:58;22.20;51.70
35495;DHT22;21608;49.300;6.846;2022-11-20T13:34:04;22.30;51.80
35495;DHT22;21608;49.300;6.846;2022-11-20T13:37:28;22.20;51.90
35495;DHT22;21608;49.300;6.846;2022-11-20T13:40:31;22.20;52.00
35495;DHT22;21608;49.300;6.846;2022-11-20T13:43:39;22.20;52.10
35495;DHT22;21608;49.300;6.846;2022-11-20T13:46:44;22.20;52.10
35495;DHT22;21608;49.300;6.846;2022-11-20T13:49:46;22.20;52.00
35495;DHT22;21608;49.300;6.846;2022-11-20T13:52:58;22.20;52.20
35495;DHT22;21608;49.300;6.846;2022-11-20T13:56:07;22.20;52.20
35495;DHT22;21608;49.300;6.846;2022-11-20T14:02:31;22.20;52.10
35495;DHT22;21608;49.300;6.846;2022-11-20T14:05:37;22.10;52.10
35495;DHT22;21608;49.300;6.846;2022-11-20T14:08:43;22.10;52.10
35495;DHT22;21608;49.300;6.846;2022-11-20T14:11:47;22.10;52.10
35495;DHT22;21608;49.300;6.846;2022-11-20T14:14:53;22.10;52.10
35495;DHT22;21608;49.300;6.846;2022-11-20T14:17:56;22.10;52.10
35495;DHT22;21608;49.300;6.846;2022-11-20T14:21:00;22.10;52.10
35495;DHT22;21608;49.300;6.846;2022-11-20T14:24:06;22.10;52.10
35495;DHT22;21608;49.300;6.846;2022-11-20T14:27:17;22.10;52.10
35495;DHT22;21608;49.300;6.846;2022-11-20T14:30:26;22.10;52.10
35495;DHT22;21608;49.300;6.846;2022-11-20T14:33:28;22.10;52.00
35495;DHT22;21608;49.300;6.846;2022-11-20T14:36:30;22.00;51.80
35495;DHT22;21608;49.300;6.846;2022-11-20T14:39:33;22.00;51.90
35495;DHT22;21608;49.300;6.846;2022-11-20T14:42:35;22.00;52.00
35495;DHT22;21608;49.300;6.846;2022-11-20T14:45:38;22.10;52.60
35495;DHT22;21608;49.300;6.846;2022-11-20T14:48:47;22.00;51.80
35495;DHT22;21608;49.300;6.846;2022-11-20T14:52:02;22.00;51.90
35495;DHT22;21608;49.300;6.846;2022-11-20T14:55:04;22.00;51.80
35495;DHT22;21608;49.300;6.846;2022-11-20T14:58:23;22.00;51.90
35495;DHT22;21608;49.300;6.846;2022-11-20T15:01:30;22.00;52.00
35495;DHT22;21608;49.300;6.846;2022-11-20T15:04:32;22.00;51.90
35495;DHT22;21608;49.300;6.846;2022-11-20T15:07:37;22.00;51.90
35495;DHT22;21608;49.300;6.846;2022-11-20T15:10:49;22.00;52.00
35495;DHT22;21608;49.300;6.846;2022-11-20T15:13:51;22.00;52.00
35495;DHT22;21608;49.300;6.846;2022-11-20T15:16:53;22.00;51.90
35495;DHT22;21608;49.300;6.846;2022-11-20T15:19:55;21.90;52.50
35495;DHT22;21608;49.300;6.846;2022-11-20T15:22:57;22.00;51.90
35495;DHT22;21608;49.300;6.846;2022-11-20T15:25:59;21.90;51.90
35495;DHT22;21608;49.300;6.846;2022-11-20T15:29:01;21.90;51.90
35495;DHT22;21608;49.300;6.846;2022-11-20T15:32:03;21.90;51.90
35495;DHT22;21608;49.300;6.846;2022-11-20T15:35:11;21.90;52.50
35495;DHT22;21608;49.300;6.846;2022-11-20T15:38:13;21.90;52.00
35495;DHT22;21608;49.300;6.846;2022-11-20T15:41:14;22.00;52.00
35495;DHT22;21608;49.300;6.846;2022-11-20T15:44:16;21.90;52.00
35495;DHT22;21608;49.300;6.846;2022-11-20T15:47:19;21.90;51.80
35495;DHT22;21608;49.300;6.846;2022-11-20T15:50:27;21.90;51.90
35495;DHT22;21608;49.300;6.846;2022-11-20T15:53:30;21.80;51.90
35495;DHT22;21608;49.300;6.846;2022-11-20T15:56:32;21.90;51.70
35495;DHT22;21608;49.300;6.846;2022-11-20T15:59:34;21.80;51.90
35495;DHT22;21608;49.300;6.846;2022-11-20T16:02:41;21.90;51.90
35495;DHT22;21608;49.300;6.846;2022-11-20T16:05:43;21.90;51.80
35495;DHT22;21608;49.300;6.846;2022-11-20T16:08:45;21.90;51.90
35495;DHT22;21608;49.300;6.846;2022-11-20T16:11:47;21.90;51.80
35495;DHT22;21608;49.300;6.846;2022-11-20T16:14:49;21.80;51.80
35495;DHT22;21608;49.300;6.846;2022-11-20T16:18:17;21.80;51.80
35495;DHT22;21608;49.300;6.846;2022-11-20T16:21:19;21.80;51.80
35495;DHT22;21608;49.300;6.846;2022-11-20T16:24:21;21.80;51.90
35495;DHT22;21608;49.300;6.846;2022-11-20T16:27:23;21.80;51.90
35495;DHT22;21608;49.300;6.846;2022-11-20T16:30:25;21.80;51.80
35495;DHT22;21608;49.300;6.846;2022-11-20T16:33:27;21.80;51.90
35495;DHT22;21608;49.300;6.846;2022-11-20T16:36:29;21.80;51.80
35495;DHT22;21608;49.300;6.846;2022-11-20T16:39:31;21.80;51.90
35495;DHT22;21608;49.300;6.846;2022-11-20T16:42:34;21.80;51.90
35495;DHT22;21608;49.300;6.846;2022-11-20T16:45:40;21.80;51.90
35495;DHT22;21608;49.300;6.846;2022-11-20T16:48:42;21.80;51.90
35495;DHT22;21608;49.300;6.846;2022-11-20T16:51:44;21.80;51.90
35495;DHT22;21608;49.300;6.846;2022-11-20T16:54:46;21.90;51.90
35495;DHT22;21608;49.300;6.846;2022-11-20T16:57:47;21.90;51.90
35495;DHT22;21608;49.300;6.846;2022-11-20T17:00:49;21.90;51.80
35495;DHT22;21608;49.300;6.846;2022-11-20T17:03:55;21.90;51.90
35495;DHT22;21608;49.300;6.846;2022-11-20T17:06:57;21.90;51.80
35495;DHT22;21608;49.300;6.846;2022-11-20T17:10:04;21.90;51.80
35495;DHT22;21608;49.300;6.846;2022-11-20T17:13:06;21.90;51.70
35495;DHT22;21608;49.300;6.846;2022-11-20T17:16:13;21.90;51.70
35495;DHT22;21608;49.300;6.846;2022-11-20T17:19:16;21.90;51.70
35495;DHT22;21608;49.300;6.846;2022-11-20T17:22:18;21.90;52.30
35495;DHT22;21608;49.300;6.846;2022-11-20T17:25:19;21.90;51.70
35495;DHT22;21608;49.300;6.846;2022-11-20T17:28:21;21.90;51.70
35495;DHT22;21608;49.300;6.846;2022-11-20T17:31:23;21.90;51.70
35495;DHT22;21608;49.300;6.846;2022-11-20T17:34:25;21.90;51.70
35495;DHT22;21608;49.300;6.846;2022-11-20T17:37:27;21.90;51.70
35495;DHT22;21608;49.300;6.846;2022-11-20T17:40:29;21.90;51.80
35495;DHT22;21608;49.300;6.846;2022-11-20T17:43:32;22.00;51.80
35495;DHT22;21608;49.300;6.846;2022-11-20T17:46:36;21.90;51.80
35495;DHT22;21608;49.300;6.846;2022-11-20T17:49:38;22.00;51.80
35495;DHT22;21608;49.300;6.846;2022-11-20T17:52:40;22.00;51.70
35495;DHT22;21608;49.300;6.846;2022-11-20T17:55:42;22.00;51.70
35495;DHT22;21608;49.300;6.846;2022-11-20T17:59:09;22.00;51.60
35495;DHT22;21608;49.300;6.846;2022-11-20T18:02:11;22.00;51.60
35495;DHT22;21608;49.300;6.846;2022-11-20T18:05:13;22.00;51.50
35495;DHT22;21608;49.300;6.846;2022-11-20T18:08:16;22.00;51.50
35495;DHT22;21608;49.300;6.846;2022-11-20T18:11:20;22.10;51.70
35495;DHT22;21608;49.300;6.846;2022-11-20T18:14:22;22.10;51.40
35495;DHT22;21608;49.300;6.846;2022-11-20T18:17:33;22.10;51.50
35495;DHT22;21608;49.300;6.846;2022-11-20T18:20:35;22.10;51.30
35495;DHT22;21608;49.300;6.846;2022-11-20T18:23:40;22.10;51.40
35495;DHT22;21608;49.300;6.846;2022-11-20T18:26:42;22.10;51.40
35495;DHT22;21608;49.300;6.846;2022-11-20T18:29:46;22.10;51.50
35495;DHT22;21608;49.300;6.846;2022-11-20T18:32:54;22.10;51.30
35495;DHT22;21608;49.300;6.846;2022-11-20T18:35:56;22.20;51.20
35495;DHT22;21608;49.300;6.846;2022-11-20T18:38:58;22.20;51.60
35495;DHT22;21608;49.300;6.846;2022-11-20T18:42:00;22.20;51.70
35495;DHT22;21608;49.300;6.846;2022-11-20T18:45:20;22.20;51.70
35495;DHT22;21608;49.300;6.846;2022-11-20T18:48:22;22.20;51.40
35495;DHT22;21608;49.300;6.846;2022-11-20T18:51:24;22.20;51.70
35495;DHT22;21608;49.300;6.846;2022-11-20T18:54:25;22.20;51.60
35495;DHT22;21608;49.300;6.846;2022-11-20T18:57:28;22.30;51.40
35495;DHT22;21608;49.300;6.846;2022-11-20T19:00:30;22.30;51.40
35495;DHT22;21608;49.300;6.846;2022-11-20T19:03:32;22.30;51.40
35495;DHT22;21608;49.300;6.846;2022-11-20T19:06:35;22.30;51.40
35495;DHT22;21608;49.300;6.846;2022-11-20T19:09:41;22.30;51.40
35495;DHT22;21608;49.300;6.846;2022-11-20T19:12:43;22.30;51.30
35495;DHT22;21608;49.300;6.846;2022-11-20T19:15:45;22.30;51.40
35495;DHT22;21608;49.300;6.846;2022-11-20T19:18:47;22.30;51.30
35495;DHT22;21608;49.300;6.846;2022-11-20T19:21:50;22.30;51.30
35495;DHT22;21608;49.300;6.846;2022-11-20T19:24:52;22.30;51.20
35495;DHT22;21608;49.300;6.846;2022-11-20T19:27:54;22.40;51.20
35495;DHT22;21608;49.300;6.846;2022-11-20T19:31:02;22.40;51.30
35495;DHT22;21608;49.300;6.846;2022-11-20T19:34:04;22.40;51.20
35495;DHT22;21608;49.300;6.846;2022-11-20T19:37:05;22.40;51.20
35495;DHT22;21608;49.300;6.846;2022-11-20T19:40:07;22.40;51.10
35495;DHT22;21608;49.300;6.846;2022-11-20T19:43:09;22.40;51.10
35495;DHT22;21608;49.300;6.846;2022-11-20T19:46:11;22.40;51.20
35495;DHT22;21608;49.300;6.846;2022-11-20T19:49:13;22.40;51.10
35495;DHT22;21608;49.300;6.846;2022-11-20T19:52:15;22.40;51.70
35495;DHT22;21608;49.300;6.846;2022-11-20T19:55:17;22.40;51.10
35495;DHT22;21608;49.300;6.846;2022-11-20T19:58:19;22.40;51.10
35495;DHT22;21608;49.300;6.846;2022-11-20T20:01:23;22.40;51.00
35495;DHT22;21608;49.300;6.846;2022-11-20T20:04:26;22.50;51.10
35495;DHT22;21608;49.300;6.846;2022-11-20T20:07:27;22.50;51.00
35495;DHT22;21608;49.300;6.846;2022-11-20T20:10:29;22.40;51.00
35495;DHT22;21608;49.300;6.846;2022-11-20T20:13:31;22.40;51.00
35495;DHT22;21608;49.300;6.846;2022-11-20T20:16:34;22.40;50.90
35495;DHT22;21608;49.300;6.846;2022-11-20T20:19:36;22.40;51.00
35495;DHT22;21608;49.300;6.846;2022-11-20T20:22:37;22.50;51.00
35495;DHT22;21608;49.300;6.846;2022-11-20T20:25:39;22.50;50.90
35495;DHT22;21608;49.300;6.846;2022-11-20T20:28:41;22.50;50.90
35495;DHT22;21608;49.300;6.846;2022-11-20T20:31:43;22.50;50.80
35495;DHT22;21608;49.300;6.846;2022-11-20T20:34:44;22.50;50.80
35495;DHT22;21608;49.300;6.846;2022-11-20T20:37:46;22.50;51.00
35495;DHT22;21608;49.300;6.846;2022-11-20T20:40:48;22.50;50.90
35495;DHT22;21608;49.300;6.846;2022-11-20T20:43:50;22.60;50.80